Time;durP1;ratioP1;P1;durP2;ratioP2;P2;SDS_P1;SDS_P2;PMS_P1;PMS_P2;Temp;Humidity;BMP_temperature;BMP_pressure;BME280_temperature;BME280_humidity;BME280_pressure;Samples;Min_cycle;Max_cycle;Signal;HPM_P1;HPM_P2
2022/05/01 00:00:13;;;;;;;31.67;22.38;;;10.00;99.90;;;;;;4888569;29;20213;-81
2022/05/01 00:02:40;;;;;;;25.90;21.70;;;10.10;99.90;;;;;;4901587;29;20217;-81
2022/05/01 00:05:07;;;;;;;31.57;23.00;;;10.20;99.90;;;;;;4900359;29;20462;-81
2022/05/01 00:07:34;;;;;;;30.40;21.17;;;10.20;99.90;;;;;;4900956;29;20459;-80
2022/05/01 00:10:02;;;;;;;28.70;19.97;;;10.10;99.90;;;;;;4897357;29;20814;-81
2022/05/01 00:12:29;;;;;;;28.23;22.80;;;10.00;99.90;;;;;;4901548;29;20470;-81
2022/05/01 00:14:56;;;;;;;27.15;20.85;;;10.20;99.90;;;;;;4895753;29;20554;-81
2022/05/01 00:17:22;;;;;;;25.20;21.77;;;10.20;99.90;;;;;;4884279;29;20241;-81
2022/05/01 00:19:49;;;;;;;31.42;22.00;;;10.00;99.90;;;;;;4885227;29;20455;-81
2022/05/01 00:22:16;;;;;;;29.80;22.60;;;9.80;99.90;;;;;;4873778;29;20212;-81
2022/05/01 00:24:43;;;;;;;32.43;23.60;;;9.60;99.90;;;;;;4883362;29;20476;-81
2022/05/01 00:27:11;;;;;;;41.27;26.07;;;9.70;99.90;;;;;;4886876;29;20453;-81
2022/05/01 00:29:37;;;;;;;29.37;24.47;;;9.60;99.90;;;;;;4893968;29;20464;-80
2022/05/01 00:32:06;;;;;;;31.23;23.10;;;9.50;99.90;;;;;;4901986;29;20461;-81
2022/05/01 00:37:19;;;;;;;31.33;22.93;;;9.70;99.90;;;;;;4883544;29;20516;-81
2022/05/01 00:39:46;;;;;;;31.92;22.67;;;9.60;99.90;;;;;;4888863;29;20471;-81
2022/05/01 00:42:18;;;;;;;28.57;22.50;;;9.50;99.90;;;;;;4895276;29;20201;-80
2022/05/01 00:44:44;;;;;;;27.67;20.53;;;9.40;99.90;;;;;;4886631;29;20497;-80
2022/05/01 00:47:12;;;;;;;28.75;20.63;;;9.50;99.90;;;;;;4900230;29;20456;-81
2022/05/01 00:49:39;;;;;;;30.87;24.00;;;9.60;99.90;;;;;;4896571;29;20217;-81
2022/05/01 00:52:09;;;;;;;36.47;24.03;;;9.60;99.90;;;;;;4883876;29;20462;-81
2022/05/01 00:54:39;;;;;;;31.38;23.17;;;9.60;99.90;;;;;;4890190;29;20487;-81
2022/05/01 00:57:07;;;;;;;31.00;22.37;;;9.80;99.90;;;;;;4905778;29;20233;-81
2022/05/01 00:59:37;;;;;;;32.87;23.97;;;10.00;99.90;;;;;;4902246;29;20463;-80
2022/05/01 01:02:04;;;;;;;28.57;21.80;;;10.10;99.90;;;;;;4886290;29;20457;-81
2022/05/01 01:04:32;;;;;;;25.87;21.93;;;10.20;99.90;;;;;;4888347;29;20485;-81
2022/05/01 01:06:58;;;;;;;28.20;21.80;;;10.30;99.90;;;;;;4903584;29;20462;-81
2022/05/01 01:09:25;;;;;;;27.50;22.50;;;10.40;99.90;;;;;;4904146;29;20469;-81
2022/05/01 01:12:53;;;;;;;26.27;21.80;;;10.50;99.90;;;;;;4886358;29;20462;-81
2022/05/01 01:14:42;;;;;;;25.03;21.03;;;10.50;99.90;;;;;;4888473;29;20521;-81
2022/05/01 01:17:10;;;;;;;27.63;21.67;;;10.60;99.90;;;;;;4905622;29;20492;-81
2022/05/01 01:19:36;;;;;;;28.70;23.20;;;10.40;99.90;;;;;;4903872;29;20458;-81
2022/05/01 01:22:08;;;;;;;25.80;21.17;;;10.50;99.90;;;;;;4887599;29;20211;-81
2022/05/01 01:24:38;;;;;;;34.93;24.43;;;10.50;99.90;;;;;;4889607;29;20850;-81
2022/05/01 01:27:06;;;;;;;33.83;23.40;;;10.50;99.90;;;;;;4906139;29;20517;-81
2022/05/01 01:32:20;;;;;;;34.83;25.30;;;10.50;99.90;;;;;;4867238;29;20496;-81
2022/05/01 01:34:51;;;;;;;29.80;21.10;;;10.50;99.90;;;;;;4870039;29;20480;-81
2022/05/01 01:37:20;;;;;;;34.97;23.93;;;10.40;99.90;;;;;;4896815;29;20490;-81
2022/05/01 01:39:49;;;;;;;30.23;24.80;;;10.10;99.90;;;;;;4885864;29;20511;-81
2022/05/01 01:42:18;;;;;;;32.40;24.50;;;10.00;99.90;;;;;;4897989;29;20454;-81
2022/05/01 01:44:46;;;;;;;34.20;23.65;;;9.80;99.90;;;;;;4935150;23;20501;-83
2022/05/01 01:47:14;;;;;;;31.80;25.33;;;9.70;99.90;;;;;;4902761;29;20213;-83
2022/05/01 01:49:41;;;;;;;31.13;22.75;;;9.80;99.90;;;;;;4903397;29;20216;-84
2022/05/01 01:52:07;;;;;;;38.60;22.83;;;9.90;99.90;;;;;;4902493;29;20216;-83
2022/05/01 01:54:35;;;;;;;40.30;22.17;;;9.90;99.90;;;;;;4902632;29;20481;-83
2022/05/01 01:57:03;;;;;;;36.30;23.25;;;9.80;99.90;;;;;;4920474;29;20846;-83
2022/05/01 01:59:29;;;;;;;31.47;23.63;;;9.90;99.90;;;;;;4921708;29;20224;-83
2022/05/01 02:01:56;;;;;;;31.37;21.43;;;10.00;99.90;;;;;;4920526;29;20465;-83
2022/05/01 02:04:23;;;;;;;32.97;24.97;;;10.10;99.90;;;;;;4919943;29;20528;-83
2022/05/01 02:06:50;;;;;;;31.33;24.17;;;10.20;99.90;;;;;;4904391;29;20533;-84
2022/05/01 02:09:18;;;;;;;38.83;27.17;;;10.10;99.90;;;;;;4902753;29;20468;-83
2022/05/01 02:11:47;;;;;;;36.47;25.07;;;9.90;99.90;;;;;;4918352;29;20547;-83
2022/05/01 02:14:13;;;;;;;33.47;24.88;;;9.70;99.90;;;;;;4921615;29;20469;-83
2022/05/01 02:16:40;;;;;;;37.27;27.20;;;9.50;99.90;;;;;;4902740;29;20213;-83
2022/05/01 02:19:08;;;;;;;40.93;29.00;;;9.50;99.90;;;;;;4902769;29;20452;-83
2022/05/01 02:21:37;;;;;;;36.53;26.80;;;9.50;99.90;;;;;;4902361;29;20458;-84
2022/05/01 02:24:08;;;;;;;37.40;24.50;;;9.40;99.90;;;;;;4902104;29;20509;-83
2022/05/01 02:26:36;;;;;;;32.28;25.08;;;9.40;99.90;;;;;;4902354;29;20225;-83
2022/05/01 02:29:09;;;;;;;34.50;24.70;;;9.40;99.90;;;;;;4902100;29;20204;-83
2022/05/01 02:31:37;;;;;;;44.78;27.17;;;9.50;99.90;;;;;;4902049;29;20224;-83
2022/05/01 02:34:04;;;;;;;35.45;26.27;;;9.40;99.90;;;;;;4901429;29;20732;-83
2022/05/01 02:36:31;;;;;;;34.25;24.85;;;9.30;99.90;;;;;;4902702;29;20582;-83
2022/05/01 02:38:58;;;;;;;38.88;25.23;;;9.20;99.90;;;;;;4902119;29;20610;-83
2022/05/01 02:41:25;;;;;;;36.58;24.88;;;9.20;99.90;;;;;;4901810;29;20624;-83
2022/05/01 02:43:52;;;;;;;38.00;28.50;;;9.10;99.90;;;;;;4919703;29;20236;-83
2022/05/01 02:46:20;;;;;;;37.38;25.10;;;9.00;99.90;;;;;;4907320;29;20464;-83
2022/05/01 02:48:46;;;;;;;39.13;25.50;;;9.00;99.90;;;;;;4901986;29;20583;-84
2022/05/01 02:51:13;;;;;;;37.10;25.75;;;8.90;99.90;;;;;;4913514;29;20212;-84
2022/05/01 02:53:40;;;;;;;36.88;24.55;;;8.90;99.90;;;;;;4920468;29;20234;-83
2022/05/01 02:56:07;;;;;;;35.15;27.02;;;9.00;99.90;;;;;;4909679;29;20212;-83
2022/05/01 02:58:33;;;;;;;32.73;25.43;;;8.80;99.90;;;;;;4901858;29;20248;-83
2022/05/01 03:01:01;;;;;;;39.88;28.35;;;8.80;99.90;;;;;;4910690;29;20460;-83
2022/05/01 03:03:29;;;;;;;34.63;25.20;;;8.70;99.90;;;;;;4920206;29;20718;-83
2022/05/01 03:05:58;;;;;;;48.38;29.80;;;8.70;99.90;;;;;;4919807;29;20239;-83
2022/05/01 03:08:27;;;;;;;37.35;26.45;;;8.70;99.90;;;;;;4920104;29;20203;-83
2022/05/01 03:10:54;;;;;;;35.17;23.15;;;8.60;99.90;;;;;;4919945;29;20287;-83
2022/05/01 03:13:21;;;;;;;34.88;26.10;;;8.70;99.90;;;;;;4920349;29;20709;-83
2022/05/01 03:15:48;;;;;;;49.40;28.25;;;8.50;99.90;;;;;;4908771;29;20216;-83
2022/05/01 03:23:46;;;;;;;35.35;24.50;;;8.60;99.90;;;;;;4920010;29;20330;-83
2022/05/01 03:26:12;;;;;;;41.72;27.08;;;8.70;99.90;;;;;;4905905;29;20223;-83
2022/05/01 03:28:39;;;;;;;38.75;26.17;;;8.60;99.90;;;;;;4901198;29;20213;-83
2022/05/01 03:31:09;;;;;;;35.75;24.58;;;8.70;99.90;;;;;;4902220;29;20211;-83
2022/05/01 03:33:36;;;;;;;34.88;24.45;;;8.90;99.90;;;;;;4901057;29;20237;-83
2022/05/01 03:36:06;;;;;;;36.00;23.80;;;8.90;99.90;;;;;;4916735;29;20214;-83
2022/05/01 03:38:34;;;;;;;39.42;26.17;;;9.00;99.90;;;;;;4919954;29;20238;-84
2022/05/01 03:41:01;;;;;;;38.28;27.40;;;8.90;99.90;;;;;;4905612;29;20259;-83
2022/05/01 03:43:27;;;;;;;37.80;26.20;;;8.90;99.90;;;;;;4901141;29;20240;-83
2022/05/01 03:45:54;;;;;;;39.58;26.80;;;9.00;99.90;;;;;;4913335;29;20224;-83
2022/05/01 03:48:21;;;;;;;37.35;26.77;;;9.10;99.90;;;;;;4920082;29;20578;-83
2022/05/01 03:50:51;;;;;;;35.10;27.13;;;9.20;99.90;;;;;;4907737;29;20210;-83
2022/05/01 03:53:19;;;;;;;34.70;25.43;;;9.30;99.90;;;;;;4900821;29;20840;-83
2022/05/01 03:55:46;;;;;;;37.83;28.55;;;9.40;99.90;;;;;;4912199;29;20971;-83
2022/05/01 03:58:14;;;;;;;38.17;24.73;;;9.50;99.90;;;;;;4921197;29;20267;-83
2022/05/01 04:00:44;;;;;;;38.13;26.88;;;9.50;99.90;;;;;;4919124;29;20467;-83
2022/05/01 04:03:10;;;;;;;38.97;27.60;;;9.40;99.90;;;;;;4919338;29;20215;-83
2022/05/01 04:05:37;;;;;;;41.58;26.25;;;9.30;99.90;;;;;;4908924;29;20685;-83
2022/05/01 04:08:05;;;;;;;38.85;24.88;;;9.20;99.90;;;;;;4901104;29;20208;-83
2022/05/01 04:10:33;;;;;;;44.00;29.10;;;9.10;99.90;;;;;;4900704;29;20224;-83
2022/05/01 04:13:00;;;;;;;34.25;26.25;;;9.10;99.90;;;;;;4900335;29;20947;-83
2022/05/01 04:15:26;;;;;;;47.03;29.83;;;9.00;99.90;;;;;;4908720;29;20208;-83
2022/05/01 04:17:53;;;;;;;35.27;27.30;;;8.90;99.90;;;;;;4919288;29;20326;-83
2022/05/01 04:20:20;;;;;;;39.65;26.83;;;8.80;99.90;;;;;;4918627;29;20472;-83
2022/05/01 04:22:48;;;;;;;39.47;26.13;;;8.70;99.90;;;;;;4919286;29;20213;-83
2022/05/01 04:25:17;;;;;;;38.88;25.73;;;8.70;99.90;;;;;;4918485;29;20482;-83
2022/05/01 04:27:46;;;;;;;41.25;26.67;;;8.70;99.90;;;;;;4922320;29;20268;-83
2022/05/01 04:30:15;;;;;;;38.72;27.98;;;8.60;99.90;;;;;;4917921;29;20689;-83
2022/05/01 04:32:50;;;;;;;48.65;29.02;;;8.60;99.90;;;;;;4904402;29;20216;-83
2022/05/01 04:35:21;;;;;;;47.60;30.92;;;8.60;99.90;;;;;;4905787;29;20761;-83
2022/05/01 04:37:48;;;;;;;46.03;30.35;;;8.60;99.90;;;;;;4904082;29;20233;-83
2022/05/01 04:40:15;;;;;;;42.72;30.35;;;8.70;99.90;;;;;;4907462;29;20207;-83
2022/05/01 04:42:42;;;;;;;43.42;25.90;;;8.80;99.90;;;;;;4909291;29;20207;-83
2022/05/01 04:45:12;;;;;;;39.88;26.92;;;8.90;99.90;;;;;;4906528;29;20338;-83
2022/05/01 04:47:39;;;;;;;41.55;27.27;;;8.90;99.90;;;;;;4923800;29;20282;-83
2022/05/01 04:50:07;;;;;;;45.40;29.20;;;9.00;99.90;;;;;;4925529;29;20236;-82
2022/05/01 04:52:38;;;;;;;45.25;29.83;;;9.10;99.90;;;;;;4928728;29;20211;-83
2022/05/01 04:55:05;;;;;;;41.33;30.47;;;9.10;99.90;;;;;;4923552;29;20220;-83
2022/05/01 04:57:32;;;;;;;41.75;28.13;;;9.10;99.90;;;;;;4922452;29;20456;-83
2022/05/01 05:00:00;;;;;;;48.65;30.08;;;9.20;99.90;;;;;;4922816;29;20209;-83
2022/05/01 05:02:37;;;;;;;41.40;28.50;;;9.10;99.90;;;;;;4922347;29;20280;-83
2022/05/01 05:05:04;;;;;;;34.50;26.23;;;9.30;99.90;;;;;;4916645;29;20718;-83
2022/05/01 05:07:31;;;;;;;41.67;25.70;;;9.30;99.90;;;;;;4903957;29;20464;-83
2022/05/01 05:09:57;;;;;;;46.63;29.25;;;9.20;99.90;;;;;;4908522;29;20467;-83
2022/05/01 05:12:24;;;;;;;40.80;29.90;;;9.20;99.90;;;;;;4922262;29;20209;-83
2022/05/01 05:14:51;;;;;;;41.17;29.08;;;9.10;99.90;;;;;;4921826;29;20484;-83
2022/05/01 05:17:19;;;;;;;40.05;25.27;;;9.10;99.90;;;;;;4905415;29;20244;-83
2022/05/01 05:19:47;;;;;;;44.87;28.57;;;9.00;99.90;;;;;;4903638;29;20240;-83
2022/05/01 05:22:15;;;;;;;37.83;24.70;;;9.20;99.90;;;;;;4902985;29;20458;-83
2022/05/01 05:24:42;;;;;;;38.40;23.77;;;9.40;99.90;;;;;;4903411;29;20486;-83
2022/05/01 05:27:09;;;;;;;36.33;24.20;;;9.40;99.90;;;;;;4922314;29;20842;-82
2022/05/01 05:29:35;;;;;;;37.90;26.20;;;9.50;99.90;;;;;;4918737;29;20460;-82
2022/05/01 05:32:02;;;;;;;33.73;24.83;;;9.60;99.90;;;;;;4902675;29;20958;-83
2022/05/01 05:34:29;;;;;;;42.10;26.43;;;9.50;99.90;;;;;;4903309;29;20471;-82
2022/05/01 05:36:57;;;;;;;36.17;24.57;;;9.60;99.90;;;;;;4903041;29;20827;-82
2022/05/01 05:39:24;;;;;;;34.30;25.90;;;9.60;99.90;;;;;;4903424;29;21056;-82
2022/05/01 05:41:51;;;;;;;36.27;24.00;;;9.70;99.90;;;;;;4919576;29;20970;-83
2022/05/01 05:44:18;;;;;;;36.30;24.10;;;9.70;99.90;;;;;;4921233;29;20493;-83
2022/05/01 05:46:44;;;;;;;34.60;27.30;;;9.80;99.90;;;;;;4903285;29;20466;-83
2022/05/01 05:49:11;;;;;;;34.30;26.57;;;9.70;99.90;;;;;;4903117;29;20481;-83
2022/05/01 05:51:38;;;;;;;32.57;24.83;;;9.70;99.90;;;;;;4902827;29;20465;-82
2022/05/01 05:54:06;;;;;;;37.00;26.70;;;9.90;99.90;;;;;;4903306;29;20484;-83
2022/05/01 05:56:33;;;;;;;33.83;26.63;;;9.90;99.90;;;;;;4903412;29;20477;-83
2022/05/01 05:59:00;;;;;;;32.08;25.05;;;10.00;99.90;;;;;;4902978;29;21045;-83
2022/05/01 06:01:27;;;;;;;38.47;23.45;;;9.90;99.90;;;;;;4919100;29;20220;-83
2022/05/01 06:03:54;;;;;;;26.87;21.77;;;9.90;99.90;;;;;;4922030;29;20236;-83
2022/05/01 06:06:20;;;;;;;35.43;22.80;;;10.00;99.90;;;;;;4908422;29;20529;-83
2022/05/01 06:08:47;;;;;;;31.03;23.10;;;10.00;99.90;;;;;;4902740;29;20466;-83
2022/05/01 06:11:15;;;;;;;29.50;22.60;;;10.00;99.90;;;;;;4916189;29;20805;-83
2022/05/01 06:13:42;;;;;;;30.50;23.40;;;10.00;99.90;;;;;;4922076;29;20484;-83
2022/05/01 06:16:09;;;;;;;26.53;23.20;;;10.10;99.90;;;;;;4920930;29;20466;-83
2022/05/01 06:18:35;;;;;;;29.65;23.80;;;10.20;99.90;;;;;;4921491;29;20493;-83
2022/05/01 06:21:02;;;;;;;32.27;23.37;;;10.10;99.90;;;;;;4910307;29;20212;-84
2022/05/01 06:23:29;;;;;;;27.37;23.03;;;10.10;99.90;;;;;;4903036;29;21038;-83
2022/05/01 06:28:58;;;;;;;32.40;24.90;;;10.20;99.90;;;;;;4903158;29;20439;-83
2022/05/01 06:31:25;;;;;;;30.90;22.20;;;10.00;99.90;;;;;;4915891;29;20449;-83
2022/05/01 06:33:52;;;;;;;30.70;21.70;;;10.00;99.90;;;;;;4921102;29;20487;-82
2022/05/01 06:36:19;;;;;;;26.90;20.50;;;10.10;99.90;;;;;;4902087;29;20453;-83
2022/05/01 06:38:46;;;;;;;32.63;22.63;;;10.10;99.90;;;;;;4902194;29;20498;-83
2022/05/01 06:41:13;;;;;;;33.90;24.87;;;10.10;99.90;;;;;;4901776;29;20468;-83
2022/05/01 06:43:39;;;;;;;31.73;23.90;;;10.20;99.90;;;;;;4901865;29;20489;-83
2022/05/01 06:46:08;;;;;;;30.10;23.33;;;10.40;99.90;;;;;;4901433;29;20495;-83
2022/05/01 06:48:35;;;;;;;28.20;22.77;;;10.50;99.90;;;;;;4902158;29;20451;-83
2022/05/01 06:51:01;;;;;;;31.67;21.73;;;10.60;99.90;;;;;;4904421;29;20473;-84
2022/05/01 06:53:28;;;;;;;26.97;23.30;;;10.70;99.90;;;;;;4914327;29;20482;-83
2022/05/01 06:55:56;;;;;;;29.57;21.73;;;10.80;99.90;;;;;;4920916;29;20465;-84
2022/05/01 06:58:23;;;;;;;27.10;21.60;;;10.80;99.90;;;;;;4907136;29;20957;-84
2022/05/01 07:00:52;;;;;;;26.13;20.77;;;11.00;99.90;;;;;;4901373;29;20807;-84
2022/05/01 07:03:20;;;;;;;27.20;22.20;;;11.10;99.90;;;;;;4913653;29;20876;-84
2022/05/01 07:05:46;;;;;;;25.73;21.10;;;10.90;99.90;;;;;;4919675;29;20464;-83
2022/05/01 07:08:13;;;;;;;25.23;18.87;;;10.80;99.90;;;;;;4917972;29;20964;-83
2022/05/01 07:10:40;;;;;;;28.97;21.73;;;10.90;99.90;;;;;;4919042;29;20470;-83
2022/05/01 07:13:09;;;;;;;26.47;22.67;;;11.00;99.90;;;;;;4914209;29;20461;-83
2022/05/01 07:15:36;;;;;;;24.43;17.37;;;11.20;99.90;;;;;;4908023;29;20549;-84
2022/05/01 07:18:03;;;;;;;26.63;20.33;;;11.30;99.90;;;;;;4901501;29;20995;-84
2022/05/01 07:20:34;;;;;;;24.33;20.73;;;11.50;99.90;;;;;;4901953;29;20518;-84
2022/05/01 07:23:01;;;;;;;24.70;20.30;;;11.60;99.90;;;;;;4901181;29;20537;-84
2022/05/01 07:25:28;;;;;;;24.07;20.27;;;11.60;99.90;;;;;;4902044;29;20463;-84
2022/05/01 07:27:54;;;;;;;22.80;19.33;;;11.80;99.90;;;;;;4908079;29;20995;-84
2022/05/01 07:30:21;;;;;;;23.03;18.23;;;12.00;99.90;;;;;;4919544;29;20467;-83
2022/05/01 07:32:48;;;;;;;26.87;19.50;;;11.90;99.90;;;;;;4919839;29;20478;-84
2022/05/01 07:35:15;;;;;;;26.50;21.50;;;11.80;99.90;;;;;;4910685;29;20483;-83
2022/05/01 07:37:43;;;;;;;25.63;18.70;;;11.60;99.90;;;;;;4901670;29;20470;-84
2022/05/01 07:40:10;;;;;;;27.20;20.37;;;11.80;99.90;;;;;;4901005;29;20494;-84
2022/05/01 07:42:37;;;;;;;20.87;18.60;;;11.80;99.90;;;;;;4900889;29;20486;-84
2022/05/01 07:45:04;;;;;;;22.67;19.57;;;12.00;99.90;;;;;;4921435;29;20485;-86
2022/05/01 07:47:31;;;;;;;24.33;18.90;;;11.90;99.90;;;;;;4925582;29;20466;-86
2022/05/01 07:49:58;;;;;;;22.43;19.73;;;12.00;99.90;;;;;;4907911;29;20467;-86
2022/05/01 07:52:25;;;;;;;22.20;18.47;;;11.90;99.90;;;;;;4907832;29;20462;-86
2022/05/01 07:54:53;;;;;;;22.40;19.20;;;12.10;99.90;;;;;;4927007;29;20476;-86
2022/05/01 07:57:20;;;;;;;21.13;16.03;;;12.30;99.90;;;;;;4929763;29;20472;-86
2022/05/01 07:59:47;;;;;;;14.50;12.50;;;12.20;99.90;;;;;;4931405;29;20492;-86
2022/05/01 08:02:14;;;;;;;17.33;13.90;;;11.90;99.90;;;;;;4927223;29;20469;-86
2022/05/01 08:04:40;;;;;;;18.83;16.50;;;12.10;99.90;;;;;;4909456;29;20494;-86
2022/05/01 08:07:08;;;;;;;16.67;14.40;;;12.30;99.90;;;;;;4908028;29;20447;-86
2022/05/01 08:09:35;;;;;;;22.10;16.60;;;12.60;99.90;;;;;;4908317;29;20232;-86
2022/05/01 08:12:04;;;;;;;16.90;15.03;;;12.90;99.90;;;;;;4908769;29;20538;-85
2022/05/01 08:14:31;;;;;;;18.17;15.30;;;13.10;99.90;;;;;;4918793;29;20479;-86
2022/05/01 08:16:58;;;;;;;18.20;15.33;;;13.20;99.90;;;;;;4924000;29;20454;-86
2022/05/01 08:22:09;;;;;;;20.83;14.70;;;13.30;99.90;;;;;;4904950;29;20444;-86
2022/05/01 08:24:37;;;;;;;16.70;14.33;;;13.60;99.90;;;;;;4921643;29;20487;-86
2022/05/01 08:27:06;;;;;;;14.37;12.97;;;13.90;99.90;;;;;;4913293;29;20459;-86
2022/05/01 08:29:34;;;;;;;15.60;13.27;;;14.20;99.90;;;;;;4906751;29;20483;-86
2022/05/01 08:32:01;;;;;;;16.30;14.13;;;14.30;99.90;;;;;;4917521;29;20458;-86
2022/05/01 08:34:28;;;;;;;16.13;14.43;;;14.40;99.90;;;;;;4925626;29;20558;-86
2022/05/01 08:36:55;;;;;;;15.97;14.37;;;14.10;99.90;;;;;;4922675;29;20460;-85
2022/05/01 08:39:22;;;;;;;15.30;13.30;;;13.90;99.90;;;;;;4926225;29;20499;-86
2022/05/01 08:41:48;;;;;;;17.87;15.97;;;13.90;99.90;;;;;;4925633;29;20460;-86
2022/05/01 08:44:22;;;;;;;16.13;12.40;;;13.60;99.90;;;;;;4925837;29;20482;-86
2022/05/01 08:47:01;;;;;;;16.97;14.90;;;13.70;99.90;;;;;;4923230;29;20828;-86
2022/05/01 08:49:29;;;;;;;16.83;14.57;;;13.60;99.90;;;;;;4925819;29;20454;-86
2022/05/01 08:51:56;;;;;;;15.50;13.93;;;13.50;99.90;;;;;;4911920;29;20476;-86
2022/05/01 08:54:25;;;;;;;15.07;13.00;;;13.60;99.90;;;;;;4919615;29;20481;-86
2022/05/01 08:56:52;;;;;;;16.97;15.23;;;13.70;99.90;;;;;;4929417;29;20941;-86
2022/05/01 08:59:20;;;;;;;17.73;15.00;;;13.80;99.90;;;;;;4920949;29;20853;-86
2022/05/01 09:01:47;;;;;;;13.10;11.67;;;13.90;99.90;;;;;;4903047;29;20455;-85
2022/05/01 09:04:15;;;;;;;16.10;13.20;;;14.20;99.90;;;;;;4918709;29;20973;-86
2022/05/01 09:06:43;;;;;;;15.80;13.17;;;14.40;99.90;;;;;;4917460;29;20453;-86
2022/05/01 09:09:12;;;;;;;16.80;13.20;;;14.40;99.40;;;;;;4914343;29;20439;-86
2022/05/01 09:14:27;;;;;;;16.53;14.83;;;14.30;98.90;;;;;;4918779;29;20503;-86
2022/05/01 09:17:14;;;;;;;14.30;12.80;;;14.50;99.40;;;;;;4917644;29;20568;-86
2022/05/01 09:19:42;;;;;;;15.43;12.30;;;14.10;98.80;;;;;;4908840;29;20494;-85
2022/05/01 09:22:09;;;;;;;15.40;13.93;;;14.20;99.70;;;;;;4907013;29;20516;-85
2022/05/01 09:24:36;;;;;;;14.87;13.27;;;14.50;99.90;;;;;;4907259;29;20490;-86
2022/05/01 09:30:38;;;;;;;14.67;13.17;;;14.90;98.00;;;;;;4907464;29;20451;-85
2022/05/01 09:33:16;;;;;;;15.60;13.90;;;15.10;97.90;;;;;;4907812;29;20944;-86
2022/05/01 09:35:43;;;;;;;14.67;13.17;;;15.20;97.30;;;;;;4906903;29;20469;-86
2022/05/01 09:38:14;;;;;;;13.03;11.83;;;15.30;97.80;;;;;;4904493;29;20475;-86
2022/05/01 09:40:41;;;;;;;15.17;13.57;;;15.30;98.10;;;;;;4904699;29;20479;-86
2022/05/01 09:43:07;;;;;;;15.37;13.77;;;15.40;97.20;;;;;;4904647;29;20828;-86
2022/05/01 09:45:36;;;;;;;15.60;14.00;;;15.50;97.30;;;;;;4906049;29;20500;-86
2022/05/01 09:48:18;;;;;;;15.27;13.50;;;15.30;97.60;;;;;;4905502;29;20510;-87
2022/05/01 09:50:46;;;;;;;16.57;14.97;;;15.00;97.50;;;;;;4905589;29;20456;-86
2022/05/01 09:53:13;;;;;;;16.50;13.33;;;15.00;98.30;;;;;;4904365;29;20463;-86
2022/05/01 09:55:41;;;;;;;13.97;12.40;;;15.20;98.40;;;;;;4905850;29;20461;-86
2022/05/01 09:58:10;;;;;;;14.53;13.20;;;15.10;97.50;;;;;;4903977;29;20470;-86
2022/05/01 10:00:40;;;;;;;14.60;13.10;;;15.50;98.10;;;;;;4904231;29;20504;-87
2022/05/01 10:03:29;;;;;;;13.43;12.07;;;16.00;97.80;;;;;;4904226;29;20463;-85
2022/05/01 10:05:57;;;;;;;13.07;11.77;;;16.50;97.60;;;;;;4903269;29;20489;-85
2022/05/01 10:08:24;;;;;;;12.67;11.23;;;16.90;96.70;;;;;;4902440;29;20465;-86
2022/05/01 10:10:55;;;;;;;15.90;14.30;;;17.30;96.00;;;;;;4906312;29;20461;-86
2022/05/01 10:13:25;;;;;;;12.60;11.50;;;17.50;94.20;;;;;;4914241;29;20480;-85
2022/05/01 10:15:53;;;;;;;14.73;12.73;;;17.60;93.50;;;;;;4920729;29;20454;-85
2022/05/01 10:18:22;;;;;;;13.80;12.50;;;17.70;92.40;;;;;;4920815;29;20458;-85
2022/05/01 10:20:49;;;;;;;13.93;12.50;;;17.80;92.00;;;;;;4901392;29;21015;-85
2022/05/01 10:27:10;;;;;;;12.20;11.10;;;18.00;91.20;;;;;;4903777;29;20439;-86
2022/05/01 10:33:19;;;;;;;13.00;11.80;;;16.90;90.80;;;;;;4911140;29;20417;-85
2022/05/01 10:36:06;;;;;;;13.83;11.87;;;15.90;92.70;;;;;;4901726;29;20461;-85
2022/05/01 10:38:42;;;;;;;14.80;13.50;;;15.60;93.30;;;;;;4902219;29;20471;-85
2022/05/01 10:41:21;;;;;;;14.87;13.20;;;15.80;93.60;;;;;;4910643;29;20490;-85
2022/05/01 10:43:58;;;;;;;15.00;13.50;;;15.90;93.80;;;;;;4913102;29;20488;-83
2022/05/01 10:46:30;;;;;;;12.90;11.37;;;16.20;92.60;;;;;;4902971;29;20497;-85
2022/05/01 10:49:04;;;;;;;16.03;13.47;;;16.40;93.30;;;;;;4902794;29;20450;-85
2022/05/01 10:51:49;;;;;;;13.50;12.00;;;16.60;92.40;;;;;;4915183;29;20900;-85
2022/05/01 10:54:40;;;;;;;14.73;13.33;;;16.90;92.40;;;;;;4920978;29;20552;-84
2022/05/01 10:57:13;;;;;;;11.87;10.63;;;17.10;91.20;;;;;;4928724;29;20453;-83
2022/05/01 10:59:45;;;;;;;14.07;12.67;;;17.30;91.60;;;;;;4918223;29;20486;-84
2022/05/01 11:02:39;;;;;;;12.17;11.07;;;17.70;91.50;;;;;;4918044;29;20514;-85
2022/05/01 11:05:10;;;;;;;10.43;9.43;;;18.40;91.90;;;;;;4908722;29;20500;-85
2022/05/01 11:07:39;;;;;;;12.23;9.03;;;18.60;83.20;;;;;;4906719;29;20454;-85
2022/05/01 11:10:09;;;;;;;10.80;9.67;;;18.80;82.90;;;;;;4906929;29;20459;-87
2022/05/01 11:12:36;;;;;;;10.77;9.77;;;19.10;87.70;;;;;;4925614;29;20451;-86
2022/05/01 11:15:05;;;;;;;11.10;10.10;;;19.20;84.00;;;;;;4924958;29;20462;-86
2022/05/01 11:17:51;;;;;;;10.70;9.70;;;19.40;82.00;;;;;;4925513;29;20453;-85
2022/05/01 11:20:33;;;;;;;10.60;9.50;;;19.50;78.20;;;;;;4920605;29;20845;-84
2022/05/01 11:23:28;;;;;;;10.70;9.70;;;19.60;77.10;;;;;;4907308;29;20463;-85
2022/05/01 11:26:10;;;;;;;9.20;8.23;;;19.80;76.60;;;;;;4917860;29;20476;-83
2022/05/01 11:29:09;;;;;;;9.63;8.73;;;20.00;78.00;;;;;;4920350;29;20977;-85
2022/05/01 11:31:51;;;;;;;10.17;9.27;;;20.20;76.10;;;;;;4908369;29;20449;-86
2022/05/01 11:34:39;;;;;;;14.47;10.80;;;20.20;73.40;;;;;;4908939;29;20534;-86
2022/05/01 11:37:17;;;;;;;10.07;9.07;;;20.40;76.60;;;;;;4906594;29;20467;-86
2022/05/01 11:40:20;;;;;;;11.17;10.07;;;20.70;77.20;;;;;;4918221;29;20459;-86
2022/05/01 11:42:47;;;;;;;10.97;9.90;;;21.30;76.70;;;;;;4908777;29;20462;-85
2022/05/01 11:45:22;;;;;;;10.90;10.00;;;21.90;74.30;;;;;;4870577;29;1129200;-87
2022/05/01 11:47:55;;;;;;;9.87;8.83;;;22.50;71.20;;;;;;4907379;29;20199;-85
2022/05/01 11:50:24;;;;;;;9.80;8.87;;;23.10;68.20;;;;;;4910795;29;20580;-84
2022/05/01 11:52:55;;;;;;;10.57;9.57;;;23.40;63.50;;;;;;4910708;29;20538;-85
2022/05/01 12:02:24;;;;;;;10.50;9.40;;;23.20;60.70;;;;;;4911174;29;20471;-84
2022/05/01 12:03:40;;;;;;;9.93;8.90;;;24.30;64.30;;;;;;4912514;29;20480;-85
2022/05/01 12:06:06;;;;;;;8.77;7.97;;;25.30;62.30;;;;;;4911380;29;20581;-85
2022/05/01 12:08:46;;;;;;;9.73;8.90;;;25.70;59.30;;;;;;4909957;29;20559;-86
2022/05/01 12:11:27;;;;;;;10.67;9.40;;;25.30;57.40;;;;;;4910479;29;20480;-85
2022/05/01 12:14:05;;;;;;;10.70;9.60;;;24.10;57.70;;;;;;4910264;29;20482;-85
2022/05/01 12:16:32;;;;;;;9.20;8.30;;;23.90;57.30;;;;;;4910649;29;20454;-85
2022/05/01 12:18:59;;;;;;;10.23;9.30;;;23.90;58.50;;;;;;4909603;29;20467;-85
2022/05/01 12:21:30;;;;;;;9.50;8.67;;;23.70;57.70;;;;;;4910650;29;20492;-85
2022/05/01 12:24:04;;;;;;;8.63;7.90;;;23.40;58.50;;;;;;4910990;29;21044;-83
2022/05/01 12:26:34;;;;;;;9.20;8.30;;;23.10;57.50;;;;;;4906614;29;20530;-82
2022/05/01 12:29:01;;;;;;;10.03;9.03;;;22.80;57.10;;;;;;4910011;29;20466;-85
2022/05/01 12:31:29;;;;;;;8.63;7.93;;;22.40;58.20;;;;;;4910333;29;20546;-85
2022/05/01 12:33:56;;;;;;;9.87;9.07;;;21.30;59.50;;;;;;4910597;29;20484;-85
2022/05/01 12:36:26;;;;;;;10.20;9.20;;;21.40;61.20;;;;;;4910387;29;20457;-84
2022/05/01 12:39:02;;;;;;;9.77;8.73;;;21.30;63.30;;;;;;4911085;29;20454;-85
2022/05/01 12:44:13;;;;;;;8.90;8.10;;;21.40;63.20;;;;;;4910750;29;20496;-85
2022/05/01 12:46:52;;;;;;;9.77;8.97;;;21.50;62.50;;;;;;4910234;29;20461;-85
2022/05/01 12:49:26;;;;;;;9.03;8.13;;;21.60;61.50;;;;;;4914010;29;20491;-84
2022/05/01 12:51:53;;;;;;;12.80;10.30;;;21.70;60.50;;;;;;4914828;29;20504;-85
2022/05/01 12:54:21;;;;;;;9.47;8.67;;;21.50;60.60;;;;;;4914771;29;20482;-85
2022/05/01 12:56:48;;;;;;;8.50;7.70;;;21.40;59.50;;;;;;4913986;29;20465;-85
2022/05/01 12:59:28;;;;;;;9.70;8.90;;;21.60;61.00;;;;;;4913133;29;20515;-85
2022/05/01 13:01:57;;;;;;;9.53;8.63;;;21.90;62.10;;;;;;4913815;29;20493;-85
2022/05/01 13:04:25;;;;;;;10.63;9.73;;;22.30;59.70;;;;;;4912693;29;20485;-86
2022/05/01 13:06:52;;;;;;;12.10;11.00;;;22.60;59.40;;;;;;4913973;29;20569;-85
2022/05/01 13:09:21;;;;;;;9.73;8.97;;;21.90;59.50;;;;;;4907884;29;20454;-85
2022/05/01 13:12:02;;;;;;;11.27;10.20;;;22.40;61.60;;;;;;4910609;29;20465;-85
2022/05/01 13:14:33;;;;;;;12.57;10.90;;;22.70;60.60;;;;;;4911383;29;20476;-85
2022/05/01 13:17:11;;;;;;;11.20;10.30;;;22.50;59.30;;;;;;4912657;29;20463;-85
2022/05/01 13:19:38;;;;;;;10.50;9.50;;;21.00;60.50;;;;;;4910181;29;20874;-85
2022/05/01 13:22:06;;;;;;;10.77;9.87;;;21.20;61.80;;;;;;4908961;29;20488;-85